Time;durP1;ratioP1;P1;durP2;ratioP2;P2;SDS_P1;SDS_P2;PMS_P1;PMS_P2;Temp;Humidity;BMP_temperature;BMP_pressure;BME280_temperature;BME280_humidity;BME280_pressure;Samples;Min_cycle;Max_cycle;Signal;HPM_P1;HPM_P2
2024/02/22 00:00:05;;;;;;;8.90;6.20;;;;;;;6.79;66.16;98917.08;109120;1257;58892;-26
2024/02/22 00:02:39;;;;;;;9.60;5.60;;;;;;;6.64;66.65;98915.34;109111;1257;58863;-26
2024/02/22 00:05:07;;;;;;;5.50;4.10;;;;;;;6.88;66.61;98915.27;109095;1258;71764;-26
2024/02/22 00:07:35;;;;;;;6.60;4.40;;;;;;;7.47;64.72;98913.45;108985;1257;74300;-26
2024/02/22 00:10:04;;;;;;;10.30;5.70;;;;;;;7.42;64.30;98906.36;109021;1257;71503;-26
2024/02/22 00:12:37;;;;;;;10.90;5.90;;;;;;;7.28;64.69;98904.57;108924;1257;59040;-26
2024/02/22 00:15:05;;;;;;;;;;;;;;;7.22;64.97;98903.11;109089;1257;58697;-26
2024/02/22 00:17:33;;;;;;;7.90;4.80;;;;;;;7.10;65.00;98897.85;109001;1257;73033;-26
2024/02/22 00:20:02;;;;;;;11.20;7.00;;;;;;;6.82;66.24;98889.98;109071;1257;74286;-26
2024/02/22 00:22:30;;;;;;;7.90;4.80;;;;;;;6.63;66.72;98893.30;108927;1258;72483;-26
2024/02/22 00:24:59;;;;;;;4.80;3.20;;;;;;;6.84;66.73;98892.23;109044;1257;59644;-26
2024/02/22 00:27:28;;;;;;;6.50;3.50;;;;;;;7.44;64.71;98888.96;109141;1257;58789;-27
2024/02/22 00:29:56;;;;;;;10.80;6.10;;;;;;;7.72;63.61;98885.27;109004;1257;73048;-26
2024/02/22 00:32:24;;;;;;;9.70;5.70;;;;;;;7.72;63.15;98885.10;109078;1257;72727;-26
2024/02/22 00:34:52;;;;;;;9.40;5.60;;;;;;;7.45;63.76;98885.29;109083;1257;71508;-26
2024/02/22 00:37:20;;;;;;;6.50;4.30;;;;;;;7.17;64.53;98880.46;109078;1257;60214;-26
2024/02/22 00:39:47;;;;;;;11.40;7.00;;;;;;;6.97;65.25;98876.36;109063;1257;60113;-27
2024/02/22 00:42:15;;;;;;;10.90;6.80;;;;;;;6.86;65.54;98873.27;108999;1260;73048;-26
2024/02/22 00:44:43;;;;;;;7.80;4.20;;;;;;;6.63;66.60;98867.61;109071;1257;74295;-26
2024/02/22 00:47:10;;;;;;;10.00;5.20;;;;;;;7.12;65.65;98868.26;108985;1257;72183;-26
2024/02/22 00:49:38;;;;;;;6.80;4.60;;;;;;;7.55;64.19;98869.52;108993;1260;60063;-26
2024/02/22 00:52:06;;;;;;;11.50;6.70;;;;;;;7.56;63.82;98863.94;109078;1257;58751;-26
2024/02/22 00:54:35;;;;;;;11.20;6.60;;;;;;;7.30;64.59;98860.79;109086;1257;71802;-26
2024/02/22 00:57:03;;;;;;;10.00;6.20;;;;;;;7.11;65.34;98858.14;109023;1257;74341;-26
2024/02/22 00:59:33;;;;;;;12.20;6.40;;;;;;;6.87;66.39;98856.67;109069;1257;71092;-26
2024/02/22 01:02:02;;;;;;;9.20;5.90;;;;;;;6.68;67.24;98848.61;109096;1257;59287;-26
2024/02/22 01:04:29;;;;;;;6.70;3.70;;;;;;;6.75;67.63;98852.13;108956;1257;60031;-27
2024/02/22 01:06:58;;;;;;;7.30;5.10;;;;;;;7.08;66.66;98847.45;109075;1259;71936;-27
2024/02/22 01:09:26;;;;;;;8.30;5.10;;;;;;;7.28;65.97;98847.11;108828;1259;73750;-27
2024/02/22 01:11:54;;;;;;;12.50;6.00;;;;;;;7.36;65.46;98845.63;109007;1259;71006;-26
2024/02/22 01:14:22;;;;;;;10.80;6.80;;;;;;;7.11;66.31;98841.88;108937;1260;60154;-26
2024/02/22 01:16:50;;;;;;;10.70;7.10;;;;;;;6.83;67.59;98837.94;109037;1259;58771;-26
2024/02/22 01:19:18;;;;;;;11.40;6.50;;;;;;;6.83;67.59;98837.77;109072;1259;72189;-26
2024/02/22 01:21:46;;;;;;;7.30;5.30;;;;;;;6.77;67.71;98836.98;109080;1258;74431;-26
2024/02/22 01:24:14;;;;;;;6.90;4.90;;;;;;;7.25;66.90;98838.64;109028;1259;71357;-26
2024/02/22 01:26:41;;;;;;;11.70;5.90;;;;;;;7.64;65.46;98833.30;108967;1259;59425;-26
2024/02/22 01:29:09;;;;;;;13.60;6.80;;;;;;;7.55;65.35;98832.55;108963;1260;60019;-26
2024/02/22 01:31:37;;;;;;;10.10;6.10;;;;;;;7.47;65.38;98827.10;109084;1259;71280;-26
2024/02/22 01:34:05;;;;;;;11.60;7.40;;;;;;;7.32;65.94;98827.43;108969;1260;73060;-27
2024/02/22 01:36:32;;;;;;;8.00;5.40;;;;;;;7.28;65.81;98815.29;109054;1258;71408;-26
2024/02/22 01:39:03;;;;;;;12.00;6.90;;;;;;;7.11;66.33;98816.52;108939;1260;58866;-27
2024/02/22 01:41:31;;;;;;;9.30;4.50;;;;;;;6.87;67.45;98810.10;108953;1260;58847;-26
2024/02/22 01:43:59;;;;;;;9.90;6.10;;;;;;;7.32;66.69;98807.95;108956;1259;73061;-26
2024/02/22 01:46:27;;;;;;;11.90;7.30;;;;;;;7.69;65.34;98800.30;109030;1259;73295;-28
2024/02/22 01:48:55;;;;;;;14.60;7.10;;;;;;;7.62;64.92;98796.33;108963;1259;72650;-26
2024/02/22 01:51:23;;;;;;;11.60;6.80;;;;;;;7.25;66.32;98796.56;108950;1260;60031;-26
2024/02/22 01:53:51;;;;;;;14.60;7.00;;;;;;;7.36;65.91;98792.31;109100;1257;60037;-26
2024/02/22 01:56:19;;;;;;;15.50;8.10;;;;;;;7.26;65.99;98796.11;109117;1257;72997;-26
2024/02/22 01:58:48;;;;;;;9.70;6.00;;;;;;;7.04;66.59;98788.51;109055;1257;74309;-26
2024/02/22 02:01:19;;;;;;;10.70;5.50;;;;;;;6.83;67.86;98785.19;108986;1257;71422;-26
2024/02/22 02:03:49;;;;;;;10.20;5.60;;;;;;;7.42;66.32;98781.36;109002;1257;58863;-26
2024/02/22 02:06:17;;;;;;;11.80;6.70;;;;;;;7.80;65.08;98778.43;109004;1259;60025;-26
2024/02/22 02:08:45;;;;;;;11.20;5.40;;;;;;;7.70;64.85;98773.05;109069;1259;72647;-26
2024/02/22 02:11:13;;;;;;;12.20;7.00;;;;;;;7.37;65.72;98774.28;109004;1258;74307;-26
2024/02/22 02:13:41;;;;;;;8.80;5.40;;;;;;;7.21;66.20;98769.52;108941;1259;72623;-26
2024/02/22 02:16:09;;;;;;;11.50;7.40;;;;;;;7.14;66.27;98767.41;108989;1259;59291;-26
2024/02/22 02:18:38;;;;;;;11.40;7.40;;;;;;;6.86;67.23;98766.11;108997;1263;60068;-26
2024/02/22 02:21:13;;;;;;;9.20;5.00;;;;;;;6.76;68.06;98765.81;108824;1260;72627;-26
2024/02/22 02:23:44;;;;;;;7.90;5.40;;;;;;;7.35;66.38;98770.08;108806;1258;73260;-26
2024/02/22 02:26:12;;;;;;;6.80;5.50;;;;;;;7.51;65.59;98767.88;108937;1259;71497;-26
2024/02/22 02:28:40;;;;;;;9.60;5.70;;;;;;;7.46;65.63;98766.21;108920;1259;60188;-26
2024/02/22 02:31:07;;;;;;;11.80;6.80;;;;;;;7.25;66.06;98764.95;108995;1259;58838;-26
2024/02/22 02:33:36;;;;;;;10.00;6.50;;;;;;;7.17;66.29;98769.83;108918;1260;72566;-26
2024/02/22 02:36:04;;;;;;;10.20;6.50;;;;;;;6.89;67.28;98767.80;108983;1260;74515;-26
2024/02/22 02:38:32;;;;;;;13.70;8.50;;;;;;;6.88;67.13;98767.02;108838;1259;71469;-27
2024/02/22 02:41:00;;;;;;;8.00;5.20;;;;;;;6.75;67.93;98766.93;108912;1259;60923;-26
2024/02/22 02:43:28;;;;;;;11.70;6.80;;;;;;;7.26;66.88;98768.50;108999;1259;58711;-26
2024/02/22 02:45:56;;;;;;;6.80;4.50;;;;;;;7.62;65.47;98764.17;108945;1259;73989;-26
2024/02/22 02:48:23;;;;;;;13.20;7.50;;;;;;;7.56;65.35;98760.77;108960;1258;74289;-26
2024/02/22 02:50:52;;;;;;;10.10;6.70;;;;;;;7.44;65.50;98760.25;108988;1259;71768;-26
2024/02/22 02:53:22;;;;;;;9.70;6.90;;;;;;;7.25;66.06;98757.73;108926;1259;60073;-26
2024/02/22 02:55:50;;;;;;;6.70;4.80;;;;;;;7.10;66.63;98753.08;108932;1260;60055;-26
2024/02/22 02:58:17;;;;;;;8.90;5.80;;;;;;;6.86;67.50;98749.95;108980;1260;73870;-26
2024/02/22 03:00:45;;;;;;;8.50;5.60;;;;;;;6.92;67.92;98750.02;108903;1260;73337;-26
2024/02/22 03:03:13;;;;;;;11.30;6.10;;;;;;;7.40;66.30;98748.82;108926;1260;71415;-26
2024/02/22 03:05:41;;;;;;;8.10;5.80;;;;;;;7.92;64.42;98749.31;108845;1260;58906;-26
2024/02/22 03:08:09;;;;;;;10.50;6.70;;;;;;;7.79;64.29;98742.52;108916;1261;59040;-26
2024/02/22 03:10:37;;;;;;;13.20;7.30;;;;;;;7.44;65.38;98742.52;108882;1260;73853;-26
2024/02/22 03:13:08;;;;;;;12.50;8.20;;;;;;;7.23;66.04;98744.17;108900;1260;74313;-26
2024/02/22 03:15:36;;;;;;;6.80;5.20;;;;;;;7.19;66.17;98740.86;108841;1261;71544;-26
2024/02/22 03:18:04;;;;;;;7.40;4.60;;;;;;;6.78;67.75;98737.15;108766;1261;59607;-26
2024/02/22 03:20:32;;;;;;;8.70;4.30;;;;;;;7.22;66.83;98737.69;108874;1261;58775;-26
2024/02/22 03:23:00;;;;;;;9.60;5.50;;;;;;;7.56;65.24;98738.32;108790;1260;73864;-26
2024/02/22 03:25:28;;;;;;;9.00;5.50;;;;;;;7.47;65.49;98733.80;108890;1261;73179;-26
2024/02/22 03:27:58;;;;;;;9.30;7.00;;;;;;;7.31;65.74;98733.27;108807;1263;72781;-26
2024/02/22 03:30:27;;;;;;;6.30;5.10;;;;;;;6.99;66.71;98731.56;108777;1261;58829;-26
2024/02/22 03:32:56;;;;;;;10.70;6.00;;;;;;;6.66;68.21;98730.10;108894;1262;60024;-26
2024/02/22 03:35:24;;;;;;;9.00;5.50;;;;;;;6.50;68.75;98727.09;108888;1260;73866;-26
2024/02/22 03:37:53;;;;;;;5.80;4.20;;;;;;;6.91;67.87;98728.18;108892;1262;73594;-26
2024/02/22 03:40:21;;;;;;;11.20;6.20;;;;;;;7.18;66.57;98729.70;108882;1261;72693;-26
2024/02/22 03:42:49;;;;;;;8.70;4.70;;;;;;;7.04;66.89;98724.16;108871;1262;60115;-26
2024/02/22 03:45:17;;;;;;;10.10;7.00;;;;;;;6.88;67.27;98725.79;108828;1260;60023;-26
2024/02/22 03:47:45;;;;;;;13.60;7.70;;;;;;;6.84;67.34;98725.34;108902;1260;71622;-26
2024/02/22 03:50:13;;;;;;;15.30;8.40;;;;;;;6.60;68.05;98724.29;108896;1261;74560;-26
2024/02/22 03:52:41;;;;;;;8.60;5.80;;;;;;;6.46;68.64;98721.64;108856;1261;72775;-26
2024/02/22 03:55:10;;;;;;;15.70;7.80;;;;;;;6.69;68.19;98724.38;108889;1261;58917;-26
2024/02/22 03:57:38;;;;;;;7.70;5.00;;;;;;;7.20;66.10;98724.36;108810;1261;60034;-26
2024/02/22 04:00:07;;;;;;;15.60;7.20;;;;;;;7.12;65.80;98723.90;108877;1260;73797;-26
2024/02/22 04:02:44;;;;;;;15.10;7.80;;;;;;;6.98;66.29;98724.88;108914;1261;74298;-26
2024/02/22 04:05:17;;;;;;;14.20;7.40;;;;;;;6.78;66.60;98718.54;108860;1262;70546;-26
2024/02/22 04:07:46;;;;;;;11.30;6.30;;;;;;;6.50;67.85;98715.36;108664;1262;58829;-26
2024/02/22 04:10:16;;;;;;;8.30;5.70;;;;;;;6.24;69.19;98709.72;108873;1262;59127;-27
2024/02/22 04:12:47;;;;;;;12.10;6.90;;;;;;;6.85;67.44;98713.27;108859;1262;72675;-26
2024/02/22 04:15:18;;;;;;;8.70;5.50;;;;;;;7.09;66.27;98715.32;108771;1262;74610;-26
2024/02/22 04:17:48;;;;;;;13.60;6.70;;;;;;;6.98;66.28;98714.38;108731;1263;72688;-26
2024/02/22 04:20:18;;;;;;;9.80;6.70;;;;;;;6.70;67.08;98706.56;108802;1262;60065;-26
2024/02/22 04:22:49;;;;;;;11.70;8.10;;;;;;;6.48;67.84;98708.38;108710;1262;58776;-26
2024/02/22 04:25:19;;;;;;;12.20;7.10;;;;;;;6.33;68.28;98710.25;108791;1263;73867;-26
2024/02/22 04:27:50;;;;;;;12.40;5.40;;;;;;;6.59;68.08;98711.27;108762;1261;73402;-26
2024/02/22 04:30:20;;;;;;;11.90;6.40;;;;;;;6.79;67.10;98709.52;108752;1261;70492;-26
2024/02/22 04:32:50;;;;;;;15.50;7.90;;;;;;;6.78;66.93;98713.22;108729;1263;60052;-26
2024/02/22 04:35:21;;;;;;;13.00;6.60;;;;;;;6.76;66.83;98715.41;108785;1261;59096;-26
2024/02/22 04:37:53;;;;;;;10.30;6.70;;;;;;;6.38;68.17;98713.71;108767;1261;72621;-26
2024/02/22 04:40:23;;;;;;;11.90;6.80;;;;;;;6.39;68.16;98717.30;108820;1261;74329;-26
2024/02/22 04:42:53;;;;;;;12.20;6.70;;;;;;;6.09;69.20;98714.85;108768;1262;71467;-26
2024/02/22 04:45:23;;;;;;;14.00;7.80;;;;;;;6.59;67.95;98721.08;108759;1263;60177;-26
2024/02/22 04:47:53;;;;;;;11.30;5.80;;;;;;;6.78;66.75;98716.29;108772;1261;60037;-26
2024/02/22 04:50:24;;;;;;;11.70;7.30;;;;;;;6.79;66.83;98721.09;108740;1262;72619;-26
2024/02/22 04:52:55;;;;;;;14.30;7.20;;;;;;;6.53;67.41;98716.52;108828;1261;74500;-26
2024/02/22 04:55:25;;;;;;;9.00;5.30;;;;;;;6.49;67.73;98718.88;108896;1261;72817;-26
2024/02/22 04:57:56;;;;;;;12.50;8.10;;;;;;;6.27;68.32;98715.56;108754;1267;59279;-26
2024/02/22 05:00:27;;;;;;;10.30;6.60;;;;;;;6.56;67.93;98720.40;108811;1261;59389;-26
2024/02/22 05:02:59;;;;;;;11.30;6.80;;;;;;;7.06;66.09;98722.13;108746;1265;72675;-26
2024/02/22 05:13:02;;;;;;;12.20;8.10;;;;;;;6.63;66.78;98725.80;102699;1292;599581;-25
2024/02/22 05:15:29;;;;;;;9.60;6.30;;;;;;;6.68;66.13;98720.27;104827;1272;61187;-25
2024/02/22 05:17:57;;;;;;;9.70;6.50;;;;;;;6.59;66.56;98724.21;104839;1272;61114;-25
2024/02/22 05:20:29;;;;;;;9.70;5.80;;;;;;;7.25;64.97;98724.17;104918;1266;71290;-26
2024/02/22 05:30:34;;;;;;;13.50;8.00;;;;;;;7.05;65.12;98732.54;102662;1292;599502;-27
2024/02/22 05:33:03;;;;;;;12.20;7.90;;;;;;;6.90;65.41;98736.17;104862;1266;61040;-28
2024/02/22 05:35:31;;;;;;;17.30;8.00;;;;;;;6.63;66.10;98733.06;104841;1267;61119;-28
2024/02/22 05:37:59;;;;;;;12.90;7.90;;;;;;;6.55;67.10;98733.29;104834;1266;72702;-28
2024/02/22 05:40:27;;;;;;;13.00;7.50;;;;;;;6.85;66.21;98733.09;104812;1266;74355;-25
2024/02/22 05:42:55;;;;;;;14.30;8.30;;;;;;;6.88;66.08;98734.05;104880;1266;72699;-25
2024/02/22 05:45:41;;;;;;;14.00;5.90;;;;;;;6.52;67.25;98731.08;104987;1268;189650;-26
2024/02/22 05:48:09;;;;;;;14.60;7.40;;;;;;;6.37;67.87;98725.90;105170;1263;61231;-27
2024/02/22 05:50:37;;;;;;;10.70;5.90;;;;;;;6.19;68.69;98719.50;105254;1266;72225;-27
2024/02/22 05:53:05;;;;;;;10.30;6.00;;;;;;;6.08;69.29;98718.71;105144;1269;72359;-27
2024/02/22 05:55:34;;;;;;;13.30;8.10;;;;;;;6.44;68.29;98710.05;104986;1266;70787;-27
2024/02/22 06:05:29;;;;;;;18.30;6.80;;;;;;;6.12;69.29;98708.98;102656;1293;600209;-26
2024/02/22 06:07:57;;;;;;;7.60;5.30;;;;;;;5.91;69.94;98709.48;104786;1268;61107;-27
2024/02/22 06:10:25;;;;;;;9.20;5.40;;;;;;;6.24;68.96;98709.37;105243;1261;61205;-27
2024/02/22 06:12:53;;;;;;;13.90;7.10;;;;;;;6.71;67.13;98706.10;105389;1261;72278;-27
2024/02/22 06:15:21;;;;;;;13.50;8.60;;;;;;;6.80;66.34;98707.87;105211;1263;74448;-27
2024/02/22 06:17:49;;;;;;;9.10;6.90;;;;;;;6.61;66.93;98700.95;105451;1261;72628;-27
2024/02/22 06:20:17;;;;;;;13.30;7.80;;;;;;;6.37;67.50;98697.26;105490;1258;196317;-28
2024/02/22 06:22:45;;;;;;;15.60;8.90;;;;;;;6.32;67.71;98696.42;105555;1257;61696;-28
2024/02/22 06:25:13;;;;;;;12.10;6.70;;;;;;;6.38;67.85;98693.57;105411;1262;72219;-28
2024/02/22 06:27:45;;;;;;;11.80;6.20;;;;;;;6.66;66.50;98687.98;105526;1257;74325;-27
2024/02/22 06:30:14;;;;;;;13.10;7.30;;;;;;;7.12;65.04;98685.77;105384;1257;71395;-27
2024/02/22 06:32:43;;;;;;;10.30;6.70;;;;;;;7.32;64.46;98679.13;105416;1261;63974;-27
2024/02/22 06:35:11;;;;;;;17.50;9.40;;;;;;;7.20;64.49;98671.58;105529;1263;62833;-27
2024/02/22 06:37:39;;;;;;;13.80;7.40;;;;;;;6.99;64.86;98668.05;105508;1258;74772;-27
2024/02/22 06:40:08;;;;;;;15.40;9.00;;;;;;;6.58;66.08;98669.60;105524;1258;76742;-28
2024/02/22 06:42:36;;;;;;;13.40;7.30;;;;;;;6.53;66.63;98668.04;105443;1257;75193;-25
2024/02/22 06:45:04;;;;;;;15.30;8.80;;;;;;;7.04;65.44;98667.86;105492;1257;61195;-25
2024/02/22 06:47:32;;;;;;;13.30;7.80;;;;;;;7.41;63.60;98668.81;105413;1263;61140;-25
2024/02/22 06:50:00;;;;;;;12.10;7.80;;;;;;;7.41;63.13;98670.75;105517;1258;76958;-27
2024/02/22 06:52:29;;;;;;;14.20;8.90;;;;;;;7.20;63.71;98672.24;105499;1262;77112;-27
2024/02/22 06:54:58;;;;;;;15.60;8.50;;;;;;;7.09;63.86;98667.67;105368;1263;72631;-25
2024/02/22 06:57:26;;;;;;;10.60;6.90;;;;;;;6.96;64.16;98668.78;105166;1263;61158;-27
2024/02/22 06:59:54;;;;;;;10.50;6.00;;;;;;;6.92;63.98;98669.08;105412;1257;61164;-26
2024/02/22 07:02:22;;;;;;;7.80;5.00;;;;;;;6.93;64.66;98666.40;105462;1257;77013;-27
2024/02/22 07:04:50;;;;;;;9.60;6.50;;;;;;;7.40;62.87;98668.04;105520;1263;75816;-27
2024/02/22 07:07:18;;;;;;;10.90;7.20;;;;;;;7.78;61.85;98668.80;105387;1257;72333;-28
2024/02/22 07:09:46;;;;;;;8.90;5.70;;;;;;;7.83;61.44;98667.39;105329;1257;61176;-27
2024/02/22 07:12:14;;;;;;;7.10;4.80;;;;;;;7.70;61.71;98665.44;105236;1262;61984;-27
2024/02/22 07:14:42;;;;;;;13.50;7.80;;;;;;;7.51;62.27;98666.16;105407;1257;75550;-27
2024/02/22 07:17:10;;;;;;;9.40;5.50;;;;;;;7.52;61.91;98661.98;105378;1257;76555;-27
2024/02/22 07:19:38;;;;;;;14.60;7.20;;;;;;;7.11;62.93;98666.02;105513;1263;75644;-27
2024/02/22 07:22:07;;;;;;;10.00;5.90;;;;;;;7.32;62.94;98663.21;105243;1264;61731;-27
2024/02/22 07:24:35;;;;;;;11.50;7.00;;;;;;;7.67;62.99;98662.58;105423;1263;62880;-27
2024/02/22 07:27:03;;;;;;;4.90;3.80;;;;;;;7.99;61.64;98659.96;105452;1263;75058;-27
2024/02/22 07:29:32;;;;;;;11.10;6.10;;;;;;;8.11;61.29;98658.55;105373;1257;76908;-26
2024/02/22 07:32:00;;;;;;;7.10;4.70;;;;;;;8.41;60.54;98657.06;105648;1257;75215;-26
2024/02/22 07:34:28;;;;;;;8.70;6.10;;;;;;;8.40;60.04;98647.29;105710;1254;61151;-27
2024/02/22 07:36:56;;;;;;;7.60;4.90;;;;;;;8.05;60.26;98650.13;105642;1260;62508;-27
2024/02/22 07:39:24;;;;;;;8.40;4.90;;;;;;;7.96;60.59;98643.77;105692;1254;74424;-27
2024/02/22 07:41:52;;;;;;;7.00;4.60;;;;;;;8.17;60.31;98646.83;105680;1259;77181;-27
2024/02/22 07:44:20;;;;;;;17.00;6.50;;;;;;;8.34;59.55;98639.77;105680;1254;75424;-26
2024/02/22 07:46:48;;;;;;;9.70;6.10;;;;;;;8.43;59.03;98636.66;105644;1254;61196;-27
2024/02/22 07:49:18;;;;;;;4.80;3.50;;;;;;;8.57;57.70;98633.54;105725;1254;61020;-27
2024/02/22 07:51:48;;;;;;;9.80;5.20;;;;;;;8.61;56.88;98628.85;105715;1253;75519;-27
2024/02/22 07:54:25;;;;;;;6.90;4.70;;;;;;;8.99;56.15;98627.91;105710;1254;76798;-26
2024/02/22 07:56:54;;;;;;;8.00;4.30;;;;;;;8.96;56.56;98626.92;105639;1256;74025;-27
2024/02/22 07:59:23;;;;;;;8.20;4.10;;;;;;;8.54;56.48;98626.49;105716;1254;62550;-28
2024/02/22 08:01:51;;;;;;;10.50;4.80;;;;;;;8.62;56.52;98624.65;105880;1257;62862;-27
2024/02/22 08:04:26;;;;;;;6.70;3.70;;;;;;;8.58;56.45;98625.27;105727;1257;75758;-27
2024/02/22 08:06:55;;;;;;;10.50;5.40;;;;;;;8.81;55.81;98625.41;105718;1258;76125;-27
2024/02/22 08:09:23;;;;;;;9.10;4.70;;;;;;;8.84;55.89;98628.64;105728;1254;75200;-26
2024/02/22 08:11:52;;;;;;;8.00;4.20;;;;;;;9.52;54.85;98624.80;105853;1254;62554;-31
2024/02/22 08:14:20;;;;;;;4.30;3.20;;;;;;;9.56;53.59;98623.98;105729;1254;61090;-26
2024/02/22 08:16:49;;;;;;;6.60;4.00;;;;;;;9.57;53.07;98622.85;105809;1254;75496;-26
2024/02/22 08:19:17;;;;;;;7.00;3.70;;;;;;;9.86;52.77;98621.45;105769;1259;77193;-27
2024/02/22 08:21:45;;;;;;;6.50;4.10;;;;;;;9.79;52.60;98628.80;105718;1259;75401;-26
2024/02/22 08:24:13;;;;;;;5.60;3.50;;;;;;;9.71;52.51;98627.61;105686;1254;64386;-26
2024/02/22 08:26:41;;;;;;;6.70;4.00;;;;;;;9.84;51.87;98625.76;105652;1254;61051;-26
2024/02/22 08:29:09;;;;;;;6.80;4.00;;;;;;;10.15;51.80;98631.64;105663;1258;75175;-26
2024/02/22 08:31:37;;;;;;;6.10;4.20;;;;;;;9.93;51.81;98627.95;105673;1254;77221;-26
2024/02/22 08:34:06;;;;;;;7.00;4.40;;;;;;;9.99;52.08;98626.09;105575;1259;76657;-26
2024/02/22 08:36:34;;;;;;;6.00;3.80;;;;;;;10.19;51.54;98621.39;105833;1254;62925;-26
2024/02/22 08:39:02;;;;;;;6.00;4.00;;;;;;;10.67;51.12;98615.77;105645;1259;63942;-26
2024/02/22 08:41:30;;;;;;;4.90;3.20;;;;;;;10.83;50.27;98612.77;105685;1254;74636;-26
2024/02/22 08:43:59;;;;;;;9.70;4.30;;;;;;;10.70;49.75;98604.52;105672;1259;75686;-26
2024/02/22 08:46:30;;;;;;;6.40;3.70;;;;;;;10.67;49.28;98607.52;105757;1257;75486;-26
2024/02/22 08:49:00;;;;;;;5.90;3.60;;;;;;;10.77;48.83;98610.50;105737;1254;61234;-26
2024/02/22 08:51:29;;;;;;;5.20;3.50;;;;;;;10.94;48.94;98604.27;105746;1254;61039;-27
2024/02/22 08:53:57;;;;;;;6.80;3.20;;;;;;;11.22;48.68;98604.89;105804;1257;74743;-26
2024/02/22 08:56:26;;;;;;;4.20;2.90;;;;;;;11.06;48.75;98598.91;105703;1260;76903;-26
2024/02/22 08:58:54;;;;;;;4.90;2.90;;;;;;;11.01;48.41;98598.44;105659;1254;75293;-26
2024/02/22 09:01:23;;;;;;;4.60;2.90;;;;;;;11.15;48.28;98591.12;105531;1259;63914;-26
2024/02/22 09:03:52;;;;;;;10.70;4.00;;;;;;;11.22;47.75;98589.27;105523;1253;61380;-26
2024/02/22 09:06:21;;;;;;;4.60;3.00;;;;;;;11.06;48.54;98590.73;105547;1254;75291;-26
2024/02/22 09:08:50;;;;;;;5.00;3.70;;;;;;;11.28;47.74;98589.42;105516;1254;76868;-26
2024/02/22 09:11:18;;;;;;;5.00;3.40;;;;;;;11.20;47.78;98579.25;105548;1254;75360;-26
2024/02/22 09:13:46;;;;;;;7.30;2.50;;;;;;;11.11;48.04;98580.84;105792;1254;61545;-26
2024/02/22 09:16:14;;;;;;;5.30;3.20;;;;;;;10.88;48.47;98580.85;105529;1254;61618;-27
2024/02/22 09:18:44;;;;;;;4.00;2.50;;;;;;;10.67;48.52;98578.26;105633;1258;75339;-27
2024/02/22 09:21:14;;;;;;;3.90;2.70;;;;;;;10.64;48.65;98580.95;105603;1259;76794;-26
2024/02/22 09:23:44;;;;;;;3.90;2.80;;;;;;;10.72;48.34;98578.48;105634;1254;76396;-27
2024/02/22 09:26:14;;;;;;;5.10;3.30;;;;;;;10.69;48.07;98577.51;105616;1258;61113;-27
2024/02/22 09:28:42;;;;;;;3.30;2.20;;;;;;;10.77;47.69;98571.81;105589;1259;62908;-26
2024/02/22 09:31:10;;;;;;;2.80;1.90;;;;;;;10.96;47.26;98570.11;105475;1259;76931;-27
2024/02/22 09:33:40;;;;;;;2.50;2.20;;;;;;;11.02;47.27;98570.80;105771;1257;75880;-27
2024/02/22 09:36:08;;;;;;;4.10;2.40;;;;;;;11.15;46.53;98571.82;105697;1260;74250;-27
2024/02/22 09:38:36;;;;;;;5.30;2.60;;;;;;;11.08;46.82;98569.69;105674;1253;61871;-27
2024/02/22 09:41:04;;;;;;;3.80;2.80;;;;;;;10.89;46.83;98562.91;105514;1254;62799;-27
2024/02/22 09:43:33;;;;;;;3.70;2.50;;;;;;;11.05;46.62;98574.66;105585;1254;75763;-27
2024/02/22 09:46:01;;;;;;;4.20;3.00;;;;;;;11.01;47.02;98571.25;105561;1259;76365;-27
2024/02/22 09:48:29;;;;;;;8.00;3.00;;;;;;;11.04;47.08;98571.29;105637;1258;75427;-27
2024/02/22 09:51:00;;;;;;;4.50;2.40;;;;;;;11.14;46.94;98568.15;105642;1254;63017;-27
2024/02/22 09:53:28;;;;;;;7.60;3.20;;;;;;;11.29;46.93;98567.62;105700;1254;61437;-27
2024/02/22 09:55:56;;;;;;;3.70;2.80;;;;;;;11.22;47.03;98567.41;105708;1254;73629;-26
2024/02/22 09:58:24;;;;;;;6.50;3.30;;;;;;;11.11;46.95;98561.11;105855;1257;77090;-26
2024/02/22 10:00:52;;;;;;;3.10;2.40;;;;;;;11.07;47.38;98566.63;105465;1254;75183;-26
2024/02/22 10:03:31;;;;;;;7.40;2.60;;;;;;;11.01;47.55;98557.25;105536;1254;63173;-26
2024/02/22 10:05:59;;;;;;;4.90;3.00;;;;;;;10.95;48.33;98555.73;105734;1259;63864;-26
2024/02/22 10:08:29;;;;;;;4.70;2.80;;;;;;;11.02;47.85;98556.84;105719;1254;74533;-26
2024/02/22 10:11:05;;;;;;;5.90;3.20;;;;;;;10.99;48.20;98545.55;105728;1258;77003;-26
2024/02/22 10:13:34;;;;;;;4.30;3.00;;;;;;;10.97;48.39;98548.33;105551;1254;74610;-27
2024/02/22 10:16:13;;;;;;;5.40;3.60;;;;;;;11.10;47.85;98547.99;105734;1253;62938;-27
2024/02/22 10:18:41;;;;;;;3.30;2.40;;;;;;;11.16;48.06;98540.79;105717;1254;61200;-26
2024/02/22 10:21:15;;;;;;;5.80;3.10;;;;;;;11.30;48.49;98536.63;105783;1257;77051;-26
2024/02/22 10:23:46;;;;;;;14.90;3.60;;;;;;;11.68;47.31;98531.19;105534;1254;75365;-26
2024/02/22 10:26:16;;;;;;;5.70;3.40;;;;;;;11.55;47.44;98528.17;105571;1254;75568;-26
2024/02/22 10:29:06;;;;;;;5.30;3.50;;;;;;;11.90;46.66;98523.71;105554;1259;62527;-26
2024/02/22 10:31:47;;;;;;;6.20;3.00;;;;;;;12.01;46.38;98512.95;105288;1260;61227;-26
2024/02/22 10:34:16;;;;;;;5.40;2.60;;;;;;;12.32;46.06;98513.97;105303;1253;75346;-26
2024/02/22 10:36:44;;;;;;;7.50;3.60;;;;;;;12.53;44.57;98512.80;105642;1260;78461;-26
2024/02/22 10:39:13;;;;;;;5.30;3.70;;;;;;;12.88;44.12;98503.20;105180;1257;74756;-26
2024/02/22 10:41:41;;;;;;;3.20;2.50;;;;;;;13.24;43.03;98495.42;105612;1257;62837;-26
2024/02/22 10:44:09;;;;;;;5.10;3.30;;;;;;;13.24;43.13;98496.22;105591;1258;61074;-27
2024/02/22 10:46:38;;;;;;;7.40;3.30;;;;;;;13.22;43.28;98489.00;105784;1257;76366;-27
2024/02/22 10:49:08;;;;;;;3.90;3.00;;;;;;;13.20;42.86;98491.06;105605;1260;76137;-27
2024/02/22 10:51:36;;;;;;;3.00;2.20;;;;;;;13.39;43.21;98486.06;105647;1254;75571;-26
2024/02/22 10:54:07;;;;;;;4.30;3.00;;;;;;;13.68;42.62;98484.30;105630;1257;62278;-27
2024/02/22 10:56:37;;;;;;;2.00;1.80;;;;;;;13.66;42.55;98478.98;105641;1260;62362;-27
2024/02/22 10:59:05;;;;;;;5.90;3.70;;;;;;;13.93;42.13;98472.15;105506;1254;75630;-27
2024/02/22 11:01:34;;;;;;;4.60;3.10;;;;;;;13.60;41.83;98464.88;105666;1259;78359;-27
2024/02/22 11:04:02;;;;;;;5.70;3.20;;;;;;;13.90;40.98;98471.83;105662;1257;74462;-27
2024/02/22 11:06:39;;;;;;;2.90;2.00;;;;;;;14.06;40.76;98464.48;105589;1257;64100;-26
2024/02/22 11:09:21;;;;;;;3.10;2.50;;;;;;;14.00;40.99;98454.55;105296;1254;61039;-27
2024/02/22 11:11:53;;;;;;;3.40;2.50;;;;;;;13.73;41.02;98452.40;105540;1259;76582;-26
2024/02/22 11:14:28;;;;;;;3.80;2.10;;;;;;;13.56;41.57;98458.00;105583;1259;76706;-26
2024/02/22 11:17:13;;;;;;;4.40;3.30;;;;;;;13.51;41.39;98442.41;105572;1254;75200;-26
2024/02/22 11:19:41;;;;;;;4.80;2.40;;;;;;;13.71;41.13;98448.26;105629;1254;62862;-26
2024/02/22 11:22:16;;;;;;;4.20;2.90;;;;;;;13.34;41.37;98448.84;105630;1253;61800;-26
2024/02/22 11:24:50;;;;;;;3.30;2.50;;;;;;;13.70;41.14;98447.48;105585;1254;75599;-26
2024/02/22 11:27:18;;;;;;;3.60;2.20;;;;;;;13.74;41.55;98436.20;105767;1257;75430;-26
2024/02/22 11:29:46;;;;;;;4.00;2.40;;;;;;;13.71;41.10;98428.05;105577;1259;75481;-26
2024/02/22 11:32:14;;;;;;;3.40;2.30;;;;;;;13.64;41.25;98427.84;105616;1257;61180;-26
2024/02/22 11:34:51;;;;;;;4.10;2.40;;;;;;;13.56;41.25;98416.96;105643;1254;61135;-26
2024/02/22 11:37:21;;;;;;;3.30;2.70;;;;;;;13.50;41.28;98419.92;105601;1259;75003;-26
2024/02/22 11:39:57;;;;;;;4.10;2.70;;;;;;;13.50;41.78;98417.08;105615;1259;75964;-26
2024/02/22 11:42:26;;;;;;;2.90;1.90;;;;;;;13.46;41.02;98416.30;105687;1254;73312;-27
2024/02/22 11:44:54;;;;;;;3.60;1.60;;;;;;;13.48;41.59;98413.64;105683;1259;61261;-27
2024/02/22 11:47:24;;;;;;;3.30;2.20;;;;;;;13.67;40.36;98412.54;105659;1256;62309;-27
2024/02/22 11:49:52;;;;;;;5.30;2.20;;;;;;;13.53;40.92;98407.60;105703;1254;76186;-26
2024/02/22 11:52:21;;;;;;;1.90;1.70;;;;;;;13.76;40.51;98410.83;105691;1254;77727;-27
2024/02/22 11:54:53;;;;;;;3.70;2.60;;;;;;;13.62;40.34;98396.54;105724;1259;74465;-27
2024/02/22 11:57:21;;;;;;;3.50;2.30;;;;;;;13.29;41.32;98401.63;105729;1253;61833;-27